Clemson, SC

5:29 PM EST on November 23, 2014 (GMT -0500)
Greenville Downtown | Change Station
CLOSE
Current Station
Airport
Location: Greenville Downtown,
Elevation: 1047 ft
Nearby Weather Stations

Elev 1047 ft 34.85 °N, 82.35 °W | Updated 10 minutes ago

Rain
Rain
48 °F
Feels Like 48 °F
N
4
Wind Variable Wind from Variable
Gusts 20 mph

Today
High -- | Low -- °F
--% Chance of Precip.
Yesterday
High -- | Low -- °F
Precip. -- in
7:12 AM 5:22 PM
New Moon, 2% visible
Pressure 29.84 in
Visibility 2.0 miles
Clouds Mostly Cloudy 800 ft
Overcast 1300 ft
Dew Point 46 °F
Humidity 93%
Rainfall 1.42 in
Snow Depth Not available.
UV 0 out of 12
Pollen .30 out of 12
Air Quality Not available.
Flu Activity Not available.
SPECI KGMU 232219Z VRB03G17KT 2SM -RA BR BKN008 OVC013 09/08 A2984 RMK AO2 LTG DSNT NW-NE P0005 T00890078

More Conditions Fewer Conditions

Pressure 29.84 in
Visibility 2.0 miles
Clouds Mostly Cloudy 800 ft
Overcast 1300 ft
Dew Point 46 °F
Humidity 93%
Rainfall 1.42 in
Snow Depth Not available.
UV 0 out of 12
Pollen .30 out of 12
Air Quality Not available.
Flu Activity Not available.
SPECI KGMU 232219Z VRB03G17KT 2SM -RA BR BKN008 OVC013 09/08 A2984 RMK AO2 LTG DSNT NW-NE P0005 T00890078

More Conditions Fewer Conditions

10-Day Weather Forecast

Almanac

Astronomy

Nov. 23, 2014 Rise Set
Actual Time
Civil Twilight
Nautical Twilight
Astronomical Twilight
Moon
Length of Visible Light
Length of Day
Tomorrow will be .
, % of the Moon is Illuminated

Today's Extremes

State Highs State Lows

Community

WunderPhotos

Upload Photos

1,773,186 photos uploaded!

WunderBlogs® & News

Nearby

Air Quality

  Air Quality AQ Index Pollutant
Not available.

Snow Depth

Station Depth Elevation

Earthquake Activity

City Distance Mag. Time & Date
Minimum magnitude displayed is 2.5.

Coastal Water Temperatures

Place Temperature

Nearby Weather Stations